ΕΜΥ, Εθνική Μετεωρολογική Υπηρεσία - Δελτία Καιρού, Προγνώσεις

ΑΕΡΟΝΑΥΤΙΛΙΑ

GREEK AIRPORTS CODES

LGML 281200Z 19012KT 9999 FEW018 21/13 Q1011=

EUROPEAN AIRPORTS CODES

LFPO 290630Z 30006KT 9999 BKN014 M00/M01 Q1011 TEMPO BKN014=